Time,TemperatureF,DewpointF,PressureIn,WindDirection,WindDirectionDegrees,WindSpeedMPH,WindSpeedGustMPH,Humidity,HourlyPrecipIn,Conditions,Clouds,dailyrainin,SolarRadiationWatts/m^2,SoftwareType,DateUTC
2013-06-01 00:02:00,74.0,74.0,-100.00,SSE,165,11.0,18.0,100,0.00,,,0.11,0.000000,,2013-06-01 05:02:00,
2013-06-01 00:32:00,73.0,73.0,-100.00,SSE,163,9.0,16.0,100,0.00,,,0.01,0.000000,,2013-06-01 05:32:00,
2013-06-01 00:43:00,73.0,73.0,-100.00,SSE,163,9.0,16.0,100,0.00,,,0.01,0.000000,,2013-06-01 05:43:00,
2013-06-01 00:52:00,73.0,73.0,-100.00,SSE,163,9.0,16.0,100,0.00,,,0.01,0.000000,,2013-06-01 05:52:00,
2013-06-01 01:01:00,73.0,73.0,-100.00,SSE,163,9.0,16.0,100,0.00,,,0.01,0.000000,,2013-06-01 06:01:00,
2013-06-01 01:32:00,73.0,73.0,-100.00,SSE,166,7.0,14.0,100,0.00,,,0.01,0.000000,,2013-06-01 06:32:00,
2013-06-01 01:42:00,73.0,73.0,-100.00,SSE,166,7.0,14.0,100,0.00,,,0.01,0.000000,,2013-06-01 06:42:00,
2013-06-01 01:52:00,73.0,73.0,-100.00,SSE,166,7.0,14.0,100,0.00,,,0.01,0.000000,,2013-06-01 06:52:00,
2013-06-01 02:01:00,73.0,73.0,-100.00,SSE,166,7.0,14.0,100,0.00,,,0.01,0.000000,,2013-06-01 07:01:00,
2013-06-01 02:32:00,72.0,72.0,-100.00,South,191,9.0,16.0,100,0.00,,,0.01,0.000000,,2013-06-01 07:32:00,
2013-06-01 02:42:00,72.0,72.0,-100.00,South,191,9.0,16.0,100,0.00,,,0.01,0.000000,,2013-06-01 07:42:00,
2013-06-01 02:52:00,72.0,72.0,-100.00,South,191,9.0,16.0,100,0.00,,,0.01,0.000000,,2013-06-01 07:52:00,
2013-06-01 03:02:00,72.0,72.0,-100.00,South,191,9.0,16.0,100,0.00,,,0.01,0.000000,,2013-06-01 08:02:00,
2013-06-01 03:32:00,63.0,63.0,-100.00,WNW,301,17.0,29.0,100,0.55,,,0.56,0.000000,,2013-06-01 08:32:00,
2013-06-01 03:42:00,63.0,63.0,-100.00,WNW,301,17.0,29.0,100,0.55,,,0.56,0.000000,,2013-06-01 08:42:00,
2013-06-01 03:52:00,63.0,63.0,-100.00,WNW,301,17.0,29.0,100,0.55,,,0.56,0.000000,,2013-06-01 08:52:00,
2013-06-01 04:01:00,63.0,63.0,-100.00,WNW,301,17.0,29.0,100,0.55,,,0.56,0.000000,,2013-06-01 09:01:00,
2013-06-01 04:33:00,62.0,62.0,-100.00,NW,320,14.0,27.0,100,1.01,,,1.57,0.000000,,2013-06-01 09:33:00,
2013-06-01 04:43:00,62.0,62.0,-100.00,NW,320,14.0,27.0,100,1.01,,,1.57,0.000000,,2013-06-01 09:43:00,
2013-06-01 04:53:00,62.0,62.0,-100.00,NW,320,14.0,27.0,100,1.01,,,1.57,0.000000,,2013-06-01 09:53:00,
2013-06-01 05:02:00,62.0,62.0,-100.00,NW,320,14.0,27.0,100,1.01,,,1.57,0.000000,,2013-06-01 10:02:00,
2013-06-01 05:33:00,62.0,62.0,-100.00,NNW,327,9.0,19.0,100,0.06,,,1.63,0.000000,,2013-06-01 10:33:00,
2013-06-01 05:42:00,62.0,62.0,-100.00,NNW,327,9.0,19.0,100,0.06,,,1.63,0.000000,,2013-06-01 10:42:00,
2013-06-01 05:52:00,62.0,62.0,-100.00,NNW,327,9.0,19.0,100,0.06,,,1.63,0.000000,,2013-06-01 10:52:00,
2013-06-01 06:02:00,62.0,62.0,-100.00,NNW,327,9.0,19.0,100,0.06,,,1.63,0.000000,,2013-06-01 11:02:00,
2013-06-01 06:33:00,61.0,61.0,-100.00,ESE,118,4.0,28.0,100,0.17,,,1.80,0.000000,,2013-06-01 11:33:00,
2013-06-01 06:42:00,61.0,61.0,-100.00,ESE,118,4.0,28.0,100,0.17,,,1.80,0.000000,,2013-06-01 11:42:00,
2013-06-01 06:52:00,61.0,61.0,-100.00,ESE,118,4.0,28.0,100,0.17,,,1.80,0.000000,,2013-06-01 11:52:00,
2013-06-01 07:01:00,61.0,61.0,-100.00,ESE,118,4.0,28.0,100,0.17,,,1.80,0.000000,,2013-06-01 12:01:00,
2013-06-01 07:32:00,61.0,61.0,-100.00,SSE,161,6.0,9.0,100,0.51,,,2.31,0.000000,,2013-06-01 12:32:00,
2013-06-01 07:42:00,61.0,61.0,-100.00,SSE,161,6.0,9.0,100,0.51,,,2.31,0.000000,,2013-06-01 12:42:00,
2013-06-01 07:52:00,61.0,61.0,-100.00,SSE,161,6.0,9.0,100,0.51,,,2.31,0.000000,,2013-06-01 12:52:00,
2013-06-01 08:01:00,61.0,61.0,-100.00,SSE,161,6.0,9.0,100,0.51,,,2.31,0.000000,,2013-06-01 13:01:00,
2013-06-01 08:32:00,61.0,61.0,-100.00,ESE,120,7.0,10.0,100,0.07,,,2.37,0.000000,,2013-06-01 13:32:00,
2013-06-01 08:42:00,61.0,61.0,-100.00,ESE,120,7.0,10.0,100,0.07,,,2.37,0.000000,,2013-06-01 13:42:00,
2013-06-01 08:52:00,61.0,61.0,-100.00,ESE,120,7.0,10.0,100,0.07,,,2.37,0.000000,,2013-06-01 13:52:00,
2013-06-01 09:02:00,61.0,61.0,-100.00,ESE,120,7.0,10.0,100,0.07,,,2.37,0.000000,,2013-06-01 14:02:00,
2013-06-01 09:32:00,61.0,61.0,-100.00,SE,125,12.0,17.0,100,0.09,,,2.46,2.000000,,2013-06-01 14:32:00,
2013-06-01 09:42:00,61.0,61.0,-100.00,SE,125,12.0,17.0,100,0.09,,,2.46,2.000000,,2013-06-01 14:42:00,
2013-06-01 09:52:00,61.0,61.0,-100.00,SE,125,12.0,17.0,100,0.09,,,2.46,2.000000,,2013-06-01 14:52:00,
2013-06-01 10:02:00,61.0,61.0,-100.00,SE,125,12.0,17.0,100,0.09,,,2.46,2.000000,,2013-06-01 15:02:00,
2013-06-01 10:33:00,61.0,61.0,-100.00,SSE,148,10.0,25.0,100,0.09,,,2.55,4.000000,,2013-06-01 15:33:00,
2013-06-01 10:43:00,61.0,61.0,-100.00,SSE,148,10.0,25.0,100,0.09,,,2.55,4.000000,,2013-06-01 15:43:00,
2013-06-01 10:53:00,61.0,61.0,-100.00,SSE,148,10.0,25.0,100,0.09,,,2.55,4.000000,,2013-06-01 15:53:00,
2013-06-01 11:03:00,61.0,61.0,-100.00,SSE,148,10.0,25.0,100,0.09,,,2.55,4.000000,,2013-06-01 16:03:00,
2013-06-01 11:33:00,61.0,61.0,-100.00,South,187,12.0,18.0,100,0.05,,,2.60,16.000000,,2013-06-01 16:33:00,
2013-06-01 11:42:00,61.0,61.0,-100.00,South,187,12.0,18.0,100,0.05,,,2.60,16.000000,,2013-06-01 16:42:00,
2013-06-01 11:52:00,61.0,61.0,-100.00,South,187,12.0,18.0,100,0.05,,,2.60,16.000000,,2013-06-01 16:52:00,
2013-06-01 12:02:00,61.0,61.0,-100.00,South,187,12.0,18.0,100,0.05,,,2.60,16.000000,,2013-06-01 17:02:00,
2013-06-01 12:32:00,61.0,61.0,-100.00,South,169,8.0,16.0,100,0.01,,,2.61,44.000000,,2013-06-01 17:32:00,
2013-06-01 12:42:00,61.0,61.0,-100.00,South,169,8.0,16.0,100,0.01,,,2.61,44.000000,,2013-06-01 17:42:00,
2013-06-01 12:52:00,61.0,61.0,-100.00,South,169,8.0,16.0,100,0.01,,,2.61,44.000000,,2013-06-01 17:52:00,
2013-06-01 13:01:00,61.0,61.0,-100.00,South,169,8.0,16.0,100,0.01,,,2.61,44.000000,,2013-06-01 18:01:00,
2013-06-01 13:32:00,61.0,61.0,-100.00,SSE,154,6.0,10.0,100,0.00,,,2.61,84.000000,,2013-06-01 18:32:00,
2013-06-01 13:42:00,61.0,61.0,-100.00,SSE,154,6.0,10.0,100,0.00,,,2.61,84.000000,,2013-06-01 18:42:00,
2013-06-01 13:52:00,61.0,61.0,-100.00,SSE,154,6.0,10.0,100,0.00,,,2.61,84.000000,,2013-06-01 18:52:00,
2013-06-01 14:02:00,61.0,61.0,-100.00,SSE,154,6.0,10.0,100,0.00,,,2.61,84.000000,,2013-06-01 19:02:00,
2013-06-01 14:32:00,63.0,63.0,-100.00,South,174,2.0,8.0,100,0.00,,,2.61,228.000000,,2013-06-01 19:32:00,
2013-06-01 14:42:00,63.0,63.0,-100.00,South,174,2.0,8.0,100,0.00,,,2.61,228.000000,,2013-06-01 19:42:00,
2013-06-01 14:52:00,63.0,63.0,-100.00,South,174,2.0,8.0,100,0.00,,,2.61,228.000000,,2013-06-01 19:52:00,
2013-06-01 15:01:00,63.0,63.0,-100.00,South,174,2.0,8.0,100,0.00,,,2.61,228.000000,,2013-06-01 20:01:00,
2013-06-01 15:32:00,65.0,65.0,-100.00,NW,315,4.0,8.0,100,0.00,,,2.61,359.000000,,2013-06-01 20:32:00,
2013-06-01 15:42:00,65.0,65.0,-100.00,NW,315,4.0,8.0,100,0.00,,,2.61,359.000000,,2013-06-01 20:42:00,
2013-06-01 15:52:00,65.0,65.0,-100.00,NW,315,4.0,8.0,100,0.00,,,2.61,359.000000,,2013-06-01 20:52:00,
2013-06-01 16:01:00,65.0,65.0,-100.00,NW,315,4.0,8.0,100,0.00,,,2.61,359.000000,,2013-06-01 21:01:00,
2013-06-01 16:33:00,67.0,66.0,-100.00,NNW,334,5.0,9.0,95,0.00,,,2.61,503.000000,,2013-06-01 21:33:00,
2013-06-01 16:43:00,67.0,66.0,-100.00,NNW,334,5.0,9.0,95,0.00,,,2.61,503.000000,,2013-06-01 21:43:00,
2013-06-01 16:53:00,67.0,66.0,-100.00,NNW,334,5.0,9.0,95,0.00,,,2.61,503.000000,,2013-06-01 21:53:00,
2013-06-01 17:03:00,67.0,66.0,-100.00,NNW,334,5.0,9.0,95,0.00,,,2.61,503.000000,,2013-06-01 22:03:00,
2013-06-01 17:33:00,69.0,68.0,-100.00,SSW,200,3.0,9.0,95,0.00,,,2.61,387.000000,,2013-06-01 22:33:00,
2013-06-01 17:42:00,69.0,68.0,-100.00,SSW,200,3.0,9.0,95,0.00,,,2.61,387.000000,,2013-06-01 22:42:00,
2013-06-01 17:53:00,69.0,68.0,-100.00,SSW,200,3.0,9.0,95,0.00,,,2.61,387.000000,,2013-06-01 22:53:00,
2013-06-01 18:02:00,69.0,68.0,-100.00,SSW,200,3.0,9.0,95,0.00,,,2.61,387.000000,,2013-06-01 23:02:00,
2013-06-01 18:32:00,71.0,69.0,-100.00,SSE,152,4.0,6.0,95,0.00,,,2.61,697.000000,,2013-06-01 23:32:00,
2013-06-01 18:42:00,71.0,69.0,-100.00,SSE,152,4.0,6.0,95,0.00,,,2.61,697.000000,,2013-06-01 23:42:00,
2013-06-01 18:52:00,71.0,69.0,-100.00,SSE,152,4.0,6.0,95,0.00,,,2.61,697.000000,,2013-06-01 23:52:00,
2013-06-01 19:02:00,71.0,69.0,-100.00,SSE,152,4.0,6.0,95,0.00,,,2.61,697.000000,,2013-06-02 00:02:00,
2013-06-01 19:32:00,69.0,69.0,-100.00,SW,223,4.0,7.0,100,0.00,,,2.61,485.000000,,2013-06-02 00:32:00,
2013-06-01 19:42:00,69.0,69.0,-100.00,SW,223,4.0,7.0,100,0.00,,,2.61,485.000000,,2013-06-02 00:42:00,
2013-06-01 19:52:00,69.0,69.0,-100.00,SW,223,4.0,7.0,100,0.00,,,2.61,485.000000,,2013-06-02 00:52:00,
2013-06-01 20:01:00,69.0,69.0,-100.00,SW,223,4.0,7.0,100,0.00,,,2.61,485.000000,,2013-06-02 01:01:00,
2013-06-01 20:32:00,65.0,65.0,-100.00,WSW,253,5.0,7.0,100,0.00,,,2.61,122.000000,,2013-06-02 01:32:00,
2013-06-01 20:42:00,65.0,65.0,-100.00,WSW,253,5.0,7.0,100,0.00,,,2.61,122.000000,,2013-06-02 01:42:00,
2013-06-01 20:52:00,65.0,65.0,-100.00,WSW,253,5.0,7.0,100,0.00,,,2.61,122.000000,,2013-06-02 01:52:00,
2013-06-01 21:01:00,65.0,65.0,-100.00,WSW,253,5.0,7.0,100,0.00,,,2.61,122.000000,,2013-06-02 02:01:00,
2013-06-01 21:32:00,64.0,64.0,-100.00,West,263,4.0,5.0,100,0.00,,,2.61,4.000000,,2013-06-02 02:32:00,
2013-06-01 21:42:00,64.0,64.0,-100.00,West,263,4.0,5.0,100,0.00,,,2.61,4.000000,,2013-06-02 02:42:00,
2013-06-01 21:52:00,64.0,64.0,-100.00,West,263,4.0,5.0,100,0.00,,,2.61,4.000000,,2013-06-02 02:52:00,
2013-06-01 22:02:00,64.0,64.0,-100.00,West,263,4.0,5.0,100,0.00,,,2.61,4.000000,,2013-06-02 03:02:00,
2013-06-01 22:33:00,64.0,64.0,-100.00,NW,315,5.0,8.0,100,0.00,,,2.61,0.000000,,2013-06-02 03:33:00,
2013-06-01 22:43:00,64.0,64.0,-100.00,NW,315,5.0,8.0,100,0.00,,,2.61,0.000000,,2013-06-02 03:43:00,
2013-06-01 22:53:00,64.0,64.0,-100.00,NW,315,5.0,8.0,100,0.00,,,2.61,0.000000,,2013-06-02 03:53:00,
2013-06-01 23:02:00,64.0,64.0,-100.00,NW,315,5.0,8.0,100,0.00,,,2.61,0.000000,,2013-06-02 04:02:00,
2013-06-01 23:33:00,62.0,62.0,-100.00,NNW,328,8.0,11.0,100,0.00,,,2.61,0.000000,,2013-06-02 04:33:00,
2013-06-01 23:42:00,62.0,62.0,-100.00,NNW,328,8.0,11.0,100,0.00,,,2.61,0.000000,,2013-06-02 04:42:00,
2013-06-01 23:53:00,62.0,62.0,-100.00,NNW,328,8.0,11.0,100,0.00,,,2.61,0.000000,,2013-06-02 04:53:00,